Time;durP1;ratioP1;P1;durP2;ratioP2;P2;SDS_P1;SDS_P2;PMS_P1;PMS_P2;Temp;Humidity;BMP_temperature;BMP_pressure;BME280_temperature;BME280_humidity;BME280_pressure;Samples;Min_cycle;Max_cycle;Signal;HPM_P1;HPM_P2
2021/01/24 00:01:48;;;;;;;14.23;8.43;;;2.30;73.00;;;;;;5028171;28;20088;-72
2021/01/24 00:04:13;;;;;;;12.85;8.70;;;2.20;73.40;;;;;;5046026;28;20033;-73
2021/01/24 00:06:39;;;;;;;12.82;8.82;;;2.20;73.60;;;;;;5009920;28;20033;-72
2021/01/24 00:09:04;;;;;;;13.35;8.70;;;2.20;74.00;;;;;;5026276;28;20037;-73
2021/01/24 00:11:30;;;;;;;12.75;8.45;;;2.10;74.30;;;;;;5043501;28;20140;-73
2021/01/24 00:13:56;;;;;;;13.50;9.30;;;2.20;74.70;;;;;;5027862;28;20223;-72
2021/01/24 00:16:21;;;;;;;13.23;8.65;;;2.30;74.80;;;;;;5008655;28;20343;-71
2021/01/24 00:18:47;;;;;;;11.35;7.97;;;2.30;74.50;;;;;;5045271;28;20163;-72
2021/01/24 00:21:12;;;;;;;12.50;8.38;;;2.40;74.90;;;;;;5043152;28;20060;-72
2021/01/24 00:23:38;;;;;;;10.27;7.05;;;2.40;74.60;;;;;;5043078;28;20285;-72
2021/01/24 00:26:03;;;;;;;10.18;7.63;;;2.40;74.80;;;;;;4995102;28;20033;-73
2021/01/24 00:28:29;;;;;;;10.82;6.90;;;2.40;74.90;;;;;;5025938;28;20049;-72
2021/01/24 00:30:54;;;;;;;11.05;7.05;;;2.50;75.00;;;;;;5027873;28;20153;-72
2021/01/24 00:33:20;;;;;;;8.82;6.63;;;2.60;75.30;;;;;;5043812;28;20034;-72
2021/01/24 00:35:45;;;;;;;9.65;7.13;;;2.60;74.90;;;;;;5025404;28;20093;-72
2021/01/24 00:38:11;;;;;;;10.23;7.00;;;2.60;75.60;;;;;;5009174;28;20398;-72
2021/01/24 00:40:36;;;;;;;11.00;7.32;;;2.60;75.30;;;;;;5027325;28;20033;-72
2021/01/24 00:43:02;;;;;;;11.38;6.90;;;2.60;75.10;;;;;;5027576;28;20037;-72
2021/01/24 00:45:28;;;;;;;10.30;6.97;;;2.60;75.50;;;;;;5009467;28;20041;-72
2021/01/24 00:47:53;;;;;;;10.85;7.22;;;2.70;76.10;;;;;;5042927;28;20048;-72
2021/01/24 00:50:19;;;;;;;11.27;6.50;;;2.80;75.50;;;;;;5024404;28;20224;-73
2021/01/24 00:52:45;;;;;;;10.77;6.32;;;2.70;75.00;;;;;;5044454;28;20033;-72
2021/01/24 00:55:10;;;;;;;9.32;6.72;;;2.80;75.40;;;;;;5026964;28;20057;-73
2021/01/24 00:57:36;;;;;;;10.70;6.72;;;2.80;75.10;;;;;;5024738;28;20408;-73
2021/01/24 01:00:04;;;;;;;10.00;6.25;;;2.80;74.80;;;;;;5023982;28;20084;-74
2021/01/24 01:02:29;;;;;;;10.63;7.20;;;2.60;74.90;;;;;;5042012;28;22091;-72
2021/01/24 01:04:55;;;;;;;9.32;6.78;;;2.60;75.50;;;;;;5026858;28;20025;-72
2021/01/24 01:07:20;;;;;;;9.23;6.72;;;2.50;75.60;;;;;;5041065;28;20044;-71
2021/01/24 01:09:46;;;;;;;10.48;6.88;;;2.60;76.10;;;;;;5026691;28;20076;-72
2021/01/24 01:12:11;;;;;;;10.38;7.05;;;2.70;76.00;;;;;;5023995;28;20079;-72
2021/01/24 01:14:37;;;;;;;10.23;6.65;;;2.70;76.30;;;;;;5041746;28;20029;-73
2021/01/24 01:17:03;;;;;;;9.88;6.80;;;2.80;76.20;;;;;;5024851;28;20117;-72
2021/01/24 01:19:28;;;;;;;7.63;5.85;;;2.80;76.00;;;;;;5023726;28;20217;-72
2021/01/24 01:21:54;;;;;;;12.18;6.97;;;2.90;75.50;;;;;;5010507;28;20333;-72
2021/01/24 01:24:20;;;;;;;11.40;6.15;;;2.80;75.30;;;;;;5007348;28;20048;-72
2021/01/24 01:26:45;;;;;;;8.95;5.95;;;2.90;75.40;;;;;;5023861;28;20095;-73
2021/01/24 01:29:11;;;;;;;8.07;5.28;;;2.90;75.00;;;;;;5040685;28;20041;-71
2021/01/24 01:31:36;;;;;;;7.75;4.90;;;3.00;74.70;;;;;;5043116;28;20033;-72
2021/01/24 01:34:02;;;;;;;7.88;4.78;;;3.00;74.80;;;;;;5026428;28;20044;-73
2021/01/24 01:36:27;;;;;;;8.32;4.95;;;3.00;74.70;;;;;;5042151;28;20061;-72
2021/01/24 01:38:53;;;;;;;6.95;4.32;;;3.10;74.10;;;;;;4991032;28;20204;-72
2021/01/24 01:41:19;;;;;;;5.45;3.63;;;3.10;73.80;;;;;;5041946;28;20064;-72
2021/01/24 01:43:44;;;;;;;5.93;3.58;;;3.10;73.70;;;;;;5025699;28;20083;-72
2021/01/24 01:46:11;;;;;;;5.50;2.85;;;3.10;73.50;;;;;;5010089;28;20041;-74
2021/01/24 01:48:37;;;;;;;4.50;2.90;;;3.20;72.90;;;;;;4991595;28;20033;-74
2021/01/24 01:51:03;;;;;;;4.53;2.67;;;3.20;72.30;;;;;;5041413;28;20099;-74
2021/01/24 01:53:28;;;;;;;4.03;2.70;;;3.20;72.30;;;;;;5042320;28;20067;-74
2021/01/24 01:55:54;;;;;;;4.22;2.58;;;3.20;71.70;;;;;;5026000;28;20049;-74
2021/01/24 01:58:19;;;;;;;5.20;2.60;;;3.00;71.70;;;;;;5042322;28;20041;-74
2021/01/24 02:00:47;;;;;;;3.33;2.22;;;3.10;71.60;;;;;;5042709;28;20040;-74
2021/01/24 02:03:21;;;;;;;4.32;2.30;;;3.20;71.60;;;;;;4991695;28;20068;-74
2021/01/24 02:06:11;;;;;;;5.28;2.65;;;3.20;71.00;;;;;;5007542;28;20325;-74
2021/01/24 02:08:49;;;;;;;4.15;2.30;;;3.10;70.80;;;;;;5009141;28;20029;-74
2021/01/24 02:11:29;;;;;;;3.17;2.00;;;3.10;70.40;;;;;;5024140;28;20375;-74
2021/01/24 02:13:58;;;;;;;4.22;2.22;;;3.10;70.70;;;;;;5011347;28;20033;-73
2021/01/24 02:16:24;;;;;;;2.55;1.85;;;3.10;70.40;;;;;;4991325;28;20045;-74
2021/01/24 02:18:50;;;;;;;2.63;1.80;;;3.10;70.80;;;;;;5009460;28;20336;-74
2021/01/24 02:21:32;;;;;;;2.25;1.50;;;3.00;70.60;;;;;;5023471;28;20037;-74
2021/01/24 02:24:00;;;;;;;1.80;1.02;;;3.00;71.00;;;;;;5007019;28;20281;-74
2021/01/24 02:26:32;;;;;;;1.65;1.00;;;3.00;71.70;;;;;;5041649;28;20037;-73
2021/01/24 02:29:19;;;;;;;1.65;0.93;;;3.00;72.00;;;;;;5026240;28;20048;-74
2021/01/24 02:31:45;;;;;;;1.33;0.80;;;3.00;71.70;;;;;;5042456;28;20033;-74
2021/01/24 02:34:11;;;;;;;1.40;0.80;;;3.00;72.50;;;;;;5043132;28;20064;-74
2021/01/24 02:36:37;;;;;;;1.38;0.70;;;3.10;72.50;;;;;;5007928;28;20046;-74
2021/01/24 02:39:03;;;;;;;1.20;0.70;;;3.10;73.20;;;;;;5008088;28;20041;-74
2021/01/24 02:41:29;;;;;;;0.85;0.63;;;3.10;72.40;;;;;;5024375;28;20291;-74
2021/01/24 02:43:55;;;;;;;1.00;0.70;;;3.10;72.60;;;;;;5025819;28;20030;-73
2021/01/24 02:46:20;;;;;;;0.80;0.70;;;3.10;72.80;;;;;;5007053;28;20042;-74
2021/01/24 02:48:46;;;;;;;1.25;0.77;;;3.00;73.00;;;;;;5025950;28;20030;-74
2021/01/24 02:51:15;;;;;;;1.33;0.80;;;3.00;73.30;;;;;;5023961;28;20041;-74
2021/01/24 02:53:40;;;;;;;0.88;0.60;;;3.00;73.60;;;;;;4991597;28;20033;-73
2021/01/24 02:56:06;;;;;;;1.25;0.70;;;3.10;73.90;;;;;;4992503;28;20048;-74
2021/01/24 02:58:31;;;;;;;2.28;0.80;;;3.20;73.60;;;;;;4991427;28;20033;-74
2021/01/24 03:00:57;;;;;;;1.52;0.80;;;3.10;73.50;;;;;;5009260;28;20095;-74
2021/01/24 03:03:23;;;;;;;1.45;0.70;;;3.10;73.60;;;;;;5007062;28;20029;-74
2021/01/24 03:05:48;;;;;;;0.95;0.60;;;3.00;73.50;;;;;;4990719;28;20325;-74
2021/01/24 03:08:14;;;;;;;0.90;0.60;;;3.10;74.20;;;;;;5007250;28;20054;-74
2021/01/24 03:10:40;;;;;;;1.33;0.75;;;3.20;74.20;;;;;;4992589;28;20041;-74
2021/01/24 03:13:10;;;;;;;1.02;0.70;;;3.10;73.20;;;;;;5011357;28;20096;-74
2021/01/24 03:15:35;;;;;;;1.13;0.65;;;3.00;74.50;;;;;;5024472;28;20054;-74
2021/01/24 03:18:01;;;;;;;0.80;0.60;;;3.20;74.30;;;;;;5008214;28;20056;-74
2021/01/24 03:20:32;;;;;;;1.35;0.73;;;3.10;73.40;;;;;;5007996;28;20049;-74
2021/01/24 03:22:58;;;;;;;0.93;0.60;;;3.20;73.50;;;;;;4993143;28;20054;-74
2021/01/24 03:25:23;;;;;;;1.02;0.73;;;3.10;73.70;;;;;;5024217;28;20209;-74
2021/01/24 03:27:49;;;;;;;1.50;0.63;;;3.10;73.50;;;;;;5026210;28;20034;-74
2021/01/24 03:30:15;;;;;;;1.13;0.60;;;3.00;73.70;;;;;;5007818;28;20080;-74
2021/01/24 03:32:41;;;;;;;1.02;0.55;;;2.90;74.30;;;;;;5007682;28;20329;-74
2021/01/24 03:35:07;;;;;;;0.77;0.60;;;3.10;74.30;;;;;;5009530;28;20092;-73
2021/01/24 03:37:32;;;;;;;0.90;0.70;;;3.00;74.20;;;;;;4991715;28;20045;-74
2021/01/24 03:39:58;;;;;;;0.68;0.60;;;3.00;75.10;;;;;;5025587;28;20096;-71
2021/01/24 03:42:26;;;;;;;0.90;0.50;;;3.10;74.50;;;;;;5023643;28;20042;-72
2021/01/24 03:44:52;;;;;;;0.90;0.70;;;3.20;74.40;;;;;;5023305;28;20030;-72
2021/01/24 03:47:17;;;;;;;1.00;0.60;;;3.10;74.10;;;;;;5006849;28;20096;-72
2021/01/24 03:49:43;;;;;;;1.00;0.60;;;3.20;74.30;;;;;;5026295;28;20038;-72
2021/01/24 03:52:08;;;;;;;1.17;0.70;;;3.20;73.80;;;;;;5026055;28;20044;-72
2021/01/24 03:54:34;;;;;;;0.55;0.50;;;3.40;74.10;;;;;;5024621;28;20048;-72
2021/01/24 03:56:59;;;;;;;1.10;0.60;;;3.30;73.10;;;;;;5024546;28;20038;-71
2021/01/24 03:59:25;;;;;;;1.13;0.68;;;3.30;73.40;;;;;;5024112;28;20038;-72
2021/01/24 04:01:50;;;;;;;2.38;0.60;;;3.30;73.60;;;;;;5025862;28;20034;-72
2021/01/24 04:04:16;;;;;;;1.48;0.60;;;3.40;73.10;;;;;;5006678;28;20054;-71
2021/01/24 04:06:41;;;;;;;0.50;0.50;;;3.40;72.90;;;;;;5008173;28;20241;-72
2021/01/24 04:09:07;;;;;;;0.68;0.60;;;3.30;72.90;;;;;;5006500;28;20305;-72
2021/01/24 04:11:33;;;;;;;0.70;0.60;;;3.30;72.60;;;;;;5006427;28;20036;-72
2021/01/24 04:13:58;;;;;;;0.85;0.52;;;3.30;72.60;;;;;;5024272;28;20029;-72
2021/01/24 04:16:24;;;;;;;0.52;0.50;;;3.30;72.10;;;;;;5037042;28;20053;-73
2021/01/24 04:18:49;;;;;;;1.55;0.60;;;3.30;72.30;;;;;;5045351;28;20107;-72
2021/01/24 04:21:15;;;;;;;0.82;0.60;;;3.30;72.10;;;;;;5025998;28;20033;-73
2021/01/24 04:23:40;;;;;;;0.93;0.70;;;3.30;71.70;;;;;;5042731;28;20100;-72
2021/01/24 04:26:06;;;;;;;0.68;0.45;;;3.40;71.90;;;;;;5011078;28;20037;-72
2021/01/24 04:28:31;;;;;;;2.20;0.55;;;3.30;71.10;;;;;;5025808;28;20332;-72
2021/01/24 04:30:57;;;;;;;0.52;0.50;;;3.30;71.10;;;;;;5045151;28;20084;-72
2021/01/24 04:33:22;;;;;;;0.73;0.50;;;3.30;70.90;;;;;;5043424;28;20040;-72
2021/01/24 04:35:48;;;;;;;1.05;0.40;;;3.40;70.30;;;;;;5025760;28;20034;-72
2021/01/24 04:38:14;;;;;;;0.68;0.50;;;3.30;69.50;;;;;;5025749;28;20147;-73
2021/01/24 04:40:39;;;;;;;0.60;0.50;;;3.30;69.00;;;;;;5044784;28;20038;-72
2021/01/24 04:43:05;;;;;;;1.50;0.50;;;3.40;69.60;;;;;;5011190;28;20332;-72
2021/01/24 04:45:31;;;;;;;0.90;0.43;;;3.40;68.60;;;;;;5043366;28;20044;-72
2021/01/24 04:47:56;;;;;;;0.70;0.40;;;3.40;68.30;;;;;;5025860;28;20075;-72
2021/01/24 04:50:22;;;;;;;0.75;0.60;;;3.40;68.10;;;;;;5009277;28;20336;-71
2021/01/24 04:52:48;;;;;;;0.40;0.40;;;3.40;67.80;;;;;;5027470;28;20037;-71
2021/01/24 04:55:13;;;;;;;0.40;0.40;;;3.30;68.00;;;;;;5045172;28;20037;-71
2021/01/24 04:57:40;;;;;;;0.60;0.50;;;3.20;68.20;;;;;;5009459;28;20038;-72
2021/01/24 05:00:06;;;;;;;0.82;0.57;;;3.20;69.20;;;;;;5025219;28;20045;-73
2021/01/24 05:02:31;;;;;;;0.73;0.40;;;3.30;69.00;;;;;;5042895;28;20236;-72
2021/01/24 05:04:58;;;;;;;0.50;0.40;;;3.30;69.00;;;;;;5027212;28;20033;-72
2021/01/24 05:07:23;;;;;;;0.50;0.40;;;3.20;68.90;;;;;;5042892;28;20044;-71
2021/01/24 05:09:49;;;;;;;1.30;0.95;;;3.20;70.10;;;;;;5027353;28;20038;-72
2021/01/24 05:12:15;;;;;;;0.85;0.50;;;3.10;69.90;;;;;;5008734;28;20061;-71
2021/01/24 05:14:41;;;;;;;0.65;0.40;;;3.10;69.90;;;;;;5024640;28;20037;-71
2021/01/24 05:17:06;;;;;;;0.43;0.40;;;3.20;70.60;;;;;;5044260;28;20072;-72
2021/01/24 05:19:35;;;;;;;0.80;0.60;;;3.20;69.70;;;;;;5024787;28;20206;-72
2021/01/24 05:22:04;;;;;;;0.60;0.50;;;3.20;70.30;;;;;;5027066;28;20040;-73
2021/01/24 05:24:30;;;;;;;0.80;0.60;;;3.20;69.50;;;;;;5008237;28;20079;-72
2021/01/24 05:26:56;;;;;;;0.88;0.50;;;3.10;69.90;;;;;;5007865;28;20033;-71
2021/01/24 05:29:25;;;;;;;0.80;0.60;;;3.20;69.50;;;;;;5024833;28;20055;-71
2021/01/24 05:31:52;;;;;;;1.10;0.50;;;3.20;69.30;;;;;;5026348;28;20318;-71
2021/01/24 05:34:21;;;;;;;0.60;0.50;;;3.20;67.60;;;;;;5024538;28;20038;-71
2021/01/24 05:36:47;;;;;;;0.95;0.40;;;3.10;68.50;;;;;;5025833;28;20034;-72
2021/01/24 05:39:13;;;;;;;0.50;0.50;;;3.10;68.30;;;;;;5024539;28;20072;-71
2021/01/24 05:41:39;;;;;;;0.75;0.50;;;3.10;68.00;;;;;;5007439;28;20236;-72
2021/01/24 05:44:12;;;;;;;0.50;0.50;;;3.10;68.20;;;;;;5026315;28;20037;-72
2021/01/24 05:46:38;;;;;;;0.50;0.50;;;3.10;67.20;;;;;;5042379;28;20328;-72
2021/01/24 05:49:03;;;;;;;0.52;0.50;;;3.10;67.60;;;;;;5043646;28;20053;-72
2021/01/24 05:51:29;;;;;;;1.55;0.90;;;3.00;67.10;;;;;;5008052;28;20038;-71
2021/01/24 05:53:55;;;;;;;1.60;0.75;;;2.90;67.20;;;;;;5024441;28;20033;-71
2021/01/24 05:56:21;;;;;;;0.60;0.50;;;2.90;66.60;;;;;;5007851;28;20101;-72
2021/01/24 05:58:54;;;;;;;0.55;0.50;;;2.90;66.70;;;;;;5009559;28;20037;-72
2021/01/24 06:01:20;;;;;;;0.70;0.60;;;2.90;66.50;;;;;;5008008;28;20038;-72
2021/01/24 06:03:45;;;;;;;0.55;0.45;;;2.90;67.10;;;;;;5026156;28;20044;-72
2021/01/24 06:06:11;;;;;;;0.60;0.60;;;2.90;67.40;;;;;;5041856;28;20061;-73
2021/01/24 06:08:36;;;;;;;2.22;0.60;;;2.90;66.50;;;;;;5024637;28;20046;-74
2021/01/24 06:11:02;;;;;;;0.75;0.60;;;2.90;67.50;;;;;;5043467;28;20075;-74
2021/01/24 06:13:28;;;;;;;1.00;0.50;;;2.80;66.80;;;;;;5025282;28;20037;-74
2021/01/24 06:15:54;;;;;;;1.58;0.70;;;2.80;66.70;;;;;;5025348;28;20049;-77
2021/01/24 06:18:27;;;;;;;0.77;0.50;;;2.90;67.00;;;;;;5026091;28;20045;-74
2021/01/24 06:20:56;;;;;;;1.40;0.60;;;3.00;67.50;;;;;;5009594;28;20065;-77
2021/01/24 06:23:26;;;;;;;1.23;0.50;;;3.00;66.40;;;;;;5027248;28;20041;-74
2021/01/24 06:25:52;;;;;;;0.60;0.43;;;2.90;66.50;;;;;;5027488;28;20033;-76
2021/01/24 06:28:30;;;;;;;0.60;0.60;;;2.90;66.80;;;;;;5024973;28;20390;-74
2021/01/24 06:30:56;;;;;;;0.80;0.57;;;2.80;66.20;;;;;;5031665;28;20060;-74
2021/01/24 06:33:22;;;;;;;1.15;0.60;;;2.80;66.80;;;;;;5045988;28;20029;-76
2021/01/24 06:35:58;;;;;;;0.95;0.60;;;2.90;66.20;;;;;;5024077;28;20093;-75
2021/01/24 06:38:37;;;;;;;0.60;0.50;;;2.90;66.20;;;;;;5044096;28;20080;-76
2021/01/24 06:41:10;;;;;;;1.67;0.70;;;2.90;65.90;;;;;;5031009;28;20041;-77
2021/01/24 06:43:37;;;;;;;0.93;0.68;;;2.90;65.70;;;;;;5011009;28;20049;-77
2021/01/24 06:46:03;;;;;;;0.88;0.60;;;2.80;65.10;;;;;;5026421;28;20075;-76
2021/01/24 06:49:01;;;;;;;0.98;0.60;;;2.80;65.60;;;;;;5024428;28;20330;-74
2021/01/24 06:51:37;;;;;;;0.80;0.55;;;2.80;65.50;;;;;;5009739;28;20053;-74
2021/01/24 06:54:04;;;;;;;1.15;0.70;;;2.90;66.20;;;;;;5024922;28;20033;-74
2021/01/24 06:56:40;;;;;;;0.95;0.70;;;2.90;65.40;;;;;;5041433;28;20041;-73
2021/01/24 06:59:06;;;;;;;1.10;0.70;;;3.00;65.90;;;;;;5024959;28;20383;-73
2021/01/24 07:01:42;;;;;;;1.17;0.70;;;2.90;64.90;;;;;;5007086;28;20044;-72
2021/01/24 07:04:28;;;;;;;0.88;0.70;;;2.90;64.70;;;;;;4992874;28;20049;-72
2021/01/24 07:06:54;;;;;;;0.70;0.63;;;2.90;65.90;;;;;;5023745;28;20029;-71
2021/01/24 07:09:28;;;;;;;0.60;0.60;;;2.90;65.80;;;;;;4991114;28;20033;-72
2021/01/24 07:11:57;;;;;;;1.00;0.73;;;2.90;65.70;;;;;;5023004;28;20286;-69
2021/01/24 07:14:32;;;;;;;1.00;0.77;;;3.00;65.50;;;;;;5023144;28;20100;-71
2021/01/24 07:17:04;;;;;;;1.38;0.70;;;2.90;64.70;;;;;;5041905;28;20056;-72
2021/01/24 07:19:30;;;;;;;0.90;0.80;;;2.90;65.20;;;;;;5040499;28;20317;-71
2021/01/24 07:21:55;;;;;;;1.50;0.93;;;3.10;65.40;;;;;;5024571;28;20096;-71
2021/01/24 07:24:21;;;;;;;1.23;0.75;;;3.10;64.70;;;;;;4990453;28;20046;-71
2021/01/24 07:26:46;;;;;;;1.48;0.77;;;2.90;64.80;;;;;;5006597;28;20045;-73
2021/01/24 07:29:13;;;;;;;1.33;0.70;;;2.80;64.60;;;;;;5006668;28;20076;-72
2021/01/24 07:31:39;;;;;;;1.23;0.90;;;2.80;65.10;;;;;;5024912;28;20041;-71
2021/01/24 07:34:04;;;;;;;0.80;0.73;;;2.90;64.80;;;;;;5008293;28;20034;-70
2021/01/24 07:36:31;;;;;;;1.42;0.80;;;2.90;64.40;;;;;;5023033;28;20034;-70
2021/01/24 07:38:56;;;;;;;1.38;0.80;;;2.90;65.20;;;;;;5023153;28;20048;-71
2021/01/24 07:41:22;;;;;;;0.90;0.60;;;2.90;64.20;;;;;;4989740;28;20037;-73
2021/01/24 07:43:48;;;;;;;1.27;0.65;;;2.90;65.00;;;;;;5024352;28;20029;-68
2021/01/24 07:46:13;;;;;;;0.90;0.70;;;2.90;64.30;;;;;;5042067;28;20041;-68
2021/01/24 07:48:40;;;;;;;0.95;0.60;;;2.80;65.10;;;;;;5022767;28;20041;-69
2021/01/24 07:51:06;;;;;;;1.08;0.82;;;2.90;64.80;;;;;;5005892;28;20041;-70
2021/01/24 07:53:31;;;;;;;1.10;0.70;;;2.80;64.00;;;;;;5022022;28;20064;-68
2021/01/24 07:55:58;;;;;;;1.15;0.80;;;2.90;63.90;;;;;;5024409;28;20072;-68
2021/01/24 07:58:24;;;;;;;1.60;0.70;;;2.90;63.90;;;;;;5022562;28;20041;-68
2021/01/24 08:00:51;;;;;;;0.93;0.65;;;3.00;63.60;;;;;;5027920;28;20079;-67
2021/01/24 08:03:21;;;;;;;1.15;0.75;;;3.00;63.20;;;;;;5010509;28;20432;-68
2021/01/24 08:05:47;;;;;;;1.55;0.80;;;3.10;62.60;;;;;;5025935;28;20317;-67
2021/01/24 08:08:12;;;;;;;1.38;0.75;;;3.30;61.40;;;;;;4993721;28;20033;-67
2021/01/24 08:10:38;;;;;;;1.38;0.90;;;3.50;61.30;;;;;;5027746;28;20087;-67
2021/01/24 08:13:03;;;;;;;1.17;0.80;;;3.60;61.00;;;;;;5028019;28;20100;-67
2021/01/24 08:15:29;;;;;;;1.20;0.80;;;3.60;59.90;;;;;;5025802;28;20049;-67
2021/01/24 08:17:55;;;;;;;1.10;0.70;;;3.40;60.30;;;;;;4993386;28;20033;-67
2021/01/24 08:20:20;;;;;;;1.30;0.80;;;3.60;61.60;;;;;;5009774;28;20033;-68
2021/01/24 08:22:46;;;;;;;1.45;0.80;;;3.40;60.00;;;;;;5027530;28;20045;-68
2021/01/24 08:25:13;;;;;;;1.23;0.88;;;3.30;60.80;;;;;;5011388;28;20037;-67
2021/01/24 08:27:38;;;;;;;1.40;0.93;;;3.40;62.00;;;;;;5009490;28;20159;-69
2021/01/24 08:30:05;;;;;;;1.30;1.00;;;3.50;60.40;;;;;;5026031;28;20041;-67
2021/01/24 08:32:31;;;;;;;1.42;0.93;;;3.40;59.70;;;;;;5025630;28;20034;-67
2021/01/24 08:34:57;;;;;;;1.38;0.90;;;3.70;60.10;;;;;;5027504;28;20041;-67
2021/01/24 08:37:23;;;;;;;1.52;0.80;;;4.00;58.10;;;;;;5009245;28;20403;-67
2021/01/24 08:39:50;;;;;;;1.33;0.90;;;4.10;57.20;;;;;;5027980;28;20229;-67
2021/01/24 08:42:16;;;;;;;0.93;0.80;;;4.30;56.60;;;;;;4993044;28;20033;-68
2021/01/24 08:44:58;;;;;;;1.48;0.90;;;4.60;56.40;;;;;;5009301;28;20194;-68
2021/01/24 08:47:24;;;;;;;0.80;0.60;;;4.90;55.20;;;;;;5025911;28;20224;-68
2021/01/24 08:49:49;;;;;;;1.20;0.70;;;4.70;54.40;;;;;;5027334;28;20057;-67
2021/01/24 08:52:20;;;;;;;0.75;0.60;;;4.70;54.70;;;;;;5044805;28;20033;-68
2021/01/24 08:54:45;;;;;;;0.97;0.60;;;4.70;55.50;;;;;;5025724;28;20260;-66
2021/01/24 08:57:15;;;;;;;0.90;0.70;;;4.50;55.60;;;;;;5025201;28;20048;-65
2021/01/24 08:59:58;;;;;;;1.30;0.70;;;4.40;53.60;;;;;;5025238;28;20068;-67
2021/01/24 09:02:30;;;;;;;1.02;0.70;;;4.50;53.00;;;;;;5025208;28;20079;-69
2021/01/24 09:04:56;;;;;;;1.17;0.88;;;4.50;54.60;;;;;;5027192;28;20029;-68
2021/01/24 09:07:22;;;;;;;1.88;0.90;;;5.20;51.50;;;;;;5042670;28;20048;-68
2021/01/24 09:09:48;;;;;;;1.63;0.90;;;5.90;47.40;;;;;;5044219;28;20336;-68
2021/01/24 09:12:19;;;;;;;0.88;0.77;;;6.50;45.50;;;;;;5042825;28;20042;-67
2021/01/24 09:14:44;;;;;;;1.40;1.02;;;6.80;45.50;;;;;;4976561;28;20036;-72
2021/01/24 09:17:15;;;;;;;1.83;1.00;;;8.80;40.70;;;;;;5026292;28;20073;-67
2021/01/24 09:19:42;;;;;;;1.67;1.13;;;9.70;38.60;;;;;;5008813;28;20076;-70
2021/01/24 09:22:11;;;;;;;4.50;1.40;;;9.90;37.70;;;;;;5026786;28;20037;-72
2021/01/24 09:24:37;;;;;;;1.77;1.10;;;11.20;34.40;;;;;;5024849;28;20386;-69
2021/01/24 09:27:04;;;;;;;2.28;1.23;;;10.70;34.00;;;;;;5042177;28;20030;-71
2021/01/24 09:29:29;;;;;;;3.25;1.30;;;11.80;33.60;;;;;;5024582;28;20095;-67
2021/01/24 09:31:55;;;;;;;2.75;1.10;;;11.60;33.00;;;;;;5043906;28;20052;-68
2021/01/24 09:34:20;;;;;;;5.05;1.90;;;11.50;31.50;;;;;;5024821;28;20037;-73
2021/01/24 09:36:46;;;;;;;28.48;11.88;;;11.50;32.60;;;;;;5026262;28;20047;-70
2021/01/24 09:39:12;;;;;;;2.88;1.45;;;10.20;33.30;;;;;;5042380;28;20041;-73
2021/01/24 09:41:37;;;;;;;2.95;1.20;;;10.30;33.30;;;;;;5041460;28;20041;-71
2021/01/24 09:44:03;;;;;;;3.35;1.13;;;9.90;34.00;;;;;;5043777;28;20036;-67
2021/01/24 09:46:29;;;;;;;2.35;1.20;;;9.60;34.00;;;;;;5008232;28;20091;-65
2021/01/24 09:48:54;;;;;;;2.08;1.15;;;10.50;34.00;;;;;;5009936;28;20220;-66
2021/01/24 09:51:20;;;;;;;1.90;1.30;;;11.50;32.30;;;;;;5008146;28;20104;-68
2021/01/24 09:53:50;;;;;;;4.55;1.45;;;11.80;29.60;;;;;;5041970;28;20037;-66
2021/01/24 09:56:15;;;;;;;1.50;0.90;;;12.00;29.10;;;;;;5024432;28;20091;-66
2021/01/24 09:58:41;;;;;;;4.88;1.58;;;11.90;29.50;;;;;;5043259;28;20108;-66
2021/01/24 10:01:07;;;;;;;7.25;1.90;;;12.00;30.20;;;;;;5043786;28;20034;-69
2021/01/24 10:03:33;;;;;;;2.70;1.35;;;12.50;29.80;;;;;;5041672;28;20061;-71
2021/01/24 10:05:58;;;;;;;2.92;1.10;;;12.60;28.90;;;;;;5041266;28;20221;-71
2021/01/24 10:08:24;;;;;;;12.05;1.40;;;12.80;29.00;;;;;;5041601;28;20045;-70
2021/01/24 10:10:50;;;;;;;2.17;1.00;;;12.90;28.70;;;;;;5025259;28;20053;-71
2021/01/24 10:13:15;;;;;;;4.57;1.10;;;12.80;28.50;;;;;;5043622;28;20041;-71
2021/01/24 10:15:41;;;;;;;5.38;1.13;;;13.20;28.00;;;;;;5041865;28;20061;-75
2021/01/24 10:18:07;;;;;;;4.28;1.20;;;13.30;27.60;;;;;;5023802;28;20108;-71
2021/01/24 10:20:33;;;;;;;2.30;1.20;;;13.00;28.70;;;;;;5007588;28;20071;-73
2021/01/24 10:22:58;;;;;;;3.85;1.23;;;13.10;27.70;;;;;;5008747;28;20037;-72
2021/01/24 10:25:24;;;;;;;3.60;1.25;;;12.10;29.30;;;;;;5007798;28;20033;-74
2021/01/24 10:27:50;;;;;;;3.72;1.13;;;12.50;29.90;;;;;;5009359;28;20040;-74
2021/01/24 10:30:16;;;;;;;4.75;1.17;;;12.10;29.50;;;;;;5007558;28;20252;-75
2021/01/24 10:32:41;;;;;;;1.65;1.00;;;12.20;29.50;;;;;;5023542;28;20033;-74
2021/01/24 10:35:07;;;;;;;2.20;1.00;;;11.90;29.40;;;;;;5025632;28;20088;-74
2021/01/24 10:37:33;;;;;;;3.35;1.55;;;11.50;29.60;;;;;;5007512;28;20329;-73
2021/01/24 10:40:00;;;;;;;2.17;1.13;;;11.50;30.40;;;;;;5008420;28;20079;-74
2021/01/24 10:42:25;;;;;;;3.78;0.90;;;11.40;30.30;;;;;;5007223;28;20097;-74
2021/01/24 10:44:51;;;;;;;2.70;1.20;;;11.40;29.60;;;;;;5007102;28;20317;-73
2021/01/24 10:47:16;;;;;;;4.57;1.20;;;11.60;30.40;;;;;;5023096;28;20075;-71
2021/01/24 10:49:42;;;;;;;1.50;1.05;;;11.40;30.40;;;;;;5024744;28;20132;-72
2021/01/24 10:52:07;;;;;;;2.15;1.10;;;11.20;29.90;;;;;;5042268;28;20221;-72
2021/01/24 10:54:36;;;;;;;3.35;1.30;;;11.20;30.90;;;;;;5023361;28;20346;-71
2021/01/24 10:57:03;;;;;;;6.38;1.40;;;10.60;31.20;;;;;;5022705;28;20029;-76
2021/01/24 10:59:28;;;;;;;4.72;1.25;;;10.60;31.70;;;;;;5023031;28;20059;-72
2021/01/24 11:01:54;;;;;;;2.92;1.20;;;10.00;32.20;;;;;;5008550;28;20034;-74
2021/01/24 11:04:20;;;;;;;5.90;1.20;;;9.70;32.70;;;;;;5006968;28;20033;-69
2021/01/24 11:06:46;;;;;;;2.53;1.30;;;9.80;33.00;;;;;;5041447;28;20040;-74
2021/01/24 11:09:11;;;;;;;4.60;1.27;;;9.50;33.30;;;;;;5023153;28;20041;-71
2021/01/24 11:11:37;;;;;;;1.77;1.10;;;9.30;33.40;;;;;;5040208;28;20045;-73
2021/01/24 11:14:02;;;;;;;3.33;1.20;;;8.90;33.40;;;;;;5042518;28;20044;-69
2021/01/24 11:16:28;;;;;;;5.30;1.20;;;8.90;35.10;;;;;;5022753;28;20045;-68
2021/01/24 11:18:54;;;;;;;6.28;1.38;;;9.00;35.10;;;;;;5024332;28;20037;-68
2021/01/24 11:21:19;;;;;;;3.50;1.05;;;8.90;34.80;;;;;;5022685;28;20278;-67
2021/01/24 11:23:45;;;;;;;8.82;1.50;;;9.00;34.20;;;;;;5040762;28;20337;-70
2021/01/24 11:26:10;;;;;;;5.50;1.20;;;8.80;34.30;;;;;;5042099;28;20033;-69
2021/01/24 11:28:36;;;;;;;6.20;1.35;;;8.90;33.40;;;;;;5023053;28;20104;-68
2021/01/24 11:31:02;;;;;;;3.30;1.23;;;8.80;34.30;;;;;;5024605;28;20042;-68
2021/01/24 11:33:27;;;;;;;13.88;5.43;;;8.40;33.80;;;;;;5022953;28;20037;-69
2021/01/24 11:35:53;;;;;;;3.75;1.20;;;8.00;34.90;;;;;;5026046;28;20328;-69
2021/01/24 11:38:18;;;;;;;3.92;1.60;;;8.20;35.30;;;;;;5026493;28;20042;-69
2021/01/24 11:40:44;;;;;;;4.13;1.27;;;8.20;34.60;;;;;;5045064;28;20068;-68
2021/01/24 11:43:09;;;;;;;3.83;1.20;;;8.10;34.60;;;;;;5028550;28;20060;-70
2021/01/24 11:45:35;;;;;;;1.60;1.00;;;7.70;35.80;;;;;;4994473;28;20057;-69
2021/01/24 11:48:01;;;;;;;5.55;1.15;;;7.60;35.50;;;;;;5043804;28;20037;-69
2021/01/24 11:50:30;;;;;;;5.40;1.50;;;7.70;36.50;;;;;;5010814;28;20044;-68
2021/01/24 11:52:55;;;;;;;2.45;1.00;;;7.70;35.30;;;;;;5045903;28;20041;-68
2021/01/24 11:55:21;;;;;;;1.85;1.10;;;7.60;36.20;;;;;;5026963;28;20064;-69
2021/01/24 11:57:46;;;;;;;3.28;1.15;;;7.40;36.30;;;;;;5045462;28;20092;-69
2021/01/24 12:00:12;;;;;;;4.10;1.30;;;7.40;37.40;;;;;;5026263;28;20056;-69
2021/01/24 12:02:38;;;;;;;3.67;1.27;;;6.80;36.80;;;;;;5026075;28;20029;-68
2021/01/24 12:05:04;;;;;;;4.47;1.27;;;6.90;38.40;;;;;;5028197;28;20148;-68
2021/01/24 12:07:30;;;;;;;3.50;1.20;;;6.90;38.00;;;;;;5044345;28;20042;-67
2021/01/24 12:09:55;;;;;;;7.05;1.17;;;6.90;38.70;;;;;;5011322;28;20084;-73
2021/01/24 12:12:21;;;;;;;3.00;1.40;;;6.90;37.70;;;;;;4993786;28;20033;-68
2021/01/24 12:14:46;;;;;;;4.38;1.20;;;6.70;37.80;;;;;;5043347;28;20080;-70
2021/01/24 12:17:12;;;;;;;3.65;1.30;;;6.50;36.70;;;;;;5009869;28;20045;-69
2021/01/24 12:19:38;;;;;;;3.05;1.38;;;6.60;38.30;;;;;;5027560;28;20084;-67
2021/01/24 12:22:03;;;;;;;4.10;1.17;;;6.50;39.60;;;;;;5027695;28;20049;-69
2021/01/24 12:24:29;;;;;;;3.08;1.70;;;6.50;38.80;;;;;;5043653;28;20034;-67
2021/01/24 12:26:55;;;;;;;2.70;1.38;;;6.50;38.80;;;;;;5025943;28;20049;-68
2021/01/24 12:29:20;;;;;;;4.47;1.40;;;6.30;39.60;;;;;;4993124;28;20037;-69
2021/01/24 12:31:46;;;;;;;3.22;1.30;;;6.20;38.20;;;;;;5045139;28;20049;-67
2021/01/24 12:34:11;;;;;;;2.30;1.20;;;6.10;40.70;;;;;;5027261;28;20029;-68
2021/01/24 12:36:37;;;;;;;7.15;1.58;;;6.20;39.40;;;;;;5025846;28;20033;-68
2021/01/24 12:39:03;;;;;;;10.15;1.55;;;6.40;39.40;;;;;;5043038;28;20116;-69
2021/01/24 12:41:29;;;;;;;4.80;1.90;;;6.70;39.60;;;;;;5026059;28;20082;-67
2021/01/24 12:43:55;;;;;;;6.63;1.60;;;7.00;39.20;;;;;;4995302;28;20037;-69
2021/01/24 12:46:20;;;;;;;2.63;1.40;;;7.10;38.10;;;;;;5009085;28;20113;-68
2021/01/24 12:48:46;;;;;;;4.82;1.30;;;7.20;39.60;;;;;;5044882;28;20056;-69
2021/01/24 12:51:11;;;;;;;5.05;1.58;;;7.40;37.60;;;;;;5043260;28;20048;-68
2021/01/24 12:53:37;;;;;;;3.65;1.10;;;7.40;38.70;;;;;;5042616;28;20037;-68